createdAt,value
2022-11-05T00:00:31.517Z,19.90
2022-11-05T00:03:28.171Z,25.50
2022-11-05T00:06:15.610Z,36.20
2022-11-05T00:09:02.163Z,25.90
2022-11-05T00:11:49.582Z,19.70
2022-11-05T00:14:36.708Z,24.20
2022-11-05T00:17:05.281Z,23.90
2022-11-05T00:19:33.785Z,23.00
2022-11-05T00:22:20.737Z,24.20
2022-11-05T00:25:08.879Z,23.90
2022-11-05T00:27:37.385Z,22.20
2022-11-05T00:30:09.143Z,28.70
2022-11-05T00:32:38.063Z,25.30
2022-11-05T00:35:10.551Z,25.50
2022-11-05T00:37:39.380Z,21.70
2022-11-05T00:40:11.181Z,25.60
2022-11-05T00:43:01.115Z,22.40
2022-11-05T00:45:30.988Z,25.50
2022-11-05T00:48:18.184Z,23.50
2022-11-05T00:50:47.104Z,27.30
2022-11-05T00:53:16.098Z,24.70
2022-11-05T00:55:45.467Z,30.10
2022-11-05T00:58:15.983Z,25.80
2022-11-05T01:00:48.613Z,26.10
2022-11-05T01:03:19.205Z,26.30
2022-11-05T01:05:49.299Z,21.50
2022-11-05T01:08:20.145Z,28.90
2022-11-05T01:10:52.263Z,24.20
2022-11-05T01:13:22.175Z,22.00
2022-11-05T01:15:52.332Z,27.60
2022-11-05T01:18:22.026Z,21.70
2022-11-05T01:20:51.459Z,23.30
2022-11-05T01:23:20.854Z,20.60
2022-11-05T01:25:49.909Z,24.90
2022-11-05T01:28:18.508Z,29.20
2022-11-05T01:30:47.400Z,22.60
2022-11-05T01:33:15.909Z,32.30
2022-11-05T01:35:44.962Z,24.00
2022-11-05T01:38:13.862Z,24.30
2022-11-05T01:40:44.060Z,27.20
2022-11-05T01:43:15.996Z,31.90
2022-11-05T01:45:46.068Z,24.00
2022-11-05T01:48:17.173Z,24.30
2022-11-05T01:50:49.816Z,25.30
2022-11-05T01:53:23.180Z,24.90
2022-11-05T01:55:57.589Z,21.30
2022-11-05T01:58:31.011Z,20.90
2022-11-05T02:00:59.899Z,20.10
2022-11-05T02:03:29.500Z,22.50
2022-11-05T02:05:59.468Z,21.00
2022-11-05T02:08:43.719Z,26.80
2022-11-05T02:11:17.566Z,21.80
2022-11-05T02:13:46.838Z,21.30
2022-11-05T02:16:24.788Z,25.60
2022-11-05T02:18:59.382Z,19.60
2022-11-05T02:21:45.755Z,35.40
2022-11-05T02:24:30.813Z,22.20
2022-11-05T02:27:12.742Z,19.40
2022-11-05T02:30:09.477Z,20.90
2022-11-05T02:33:10.275Z,27.10
2022-11-05T02:35:52.312Z,17.80
2022-11-05T02:38:30.752Z,28.20
2022-11-05T02:41:06.627Z,24.30
2022-11-05T02:43:59.471Z,24.60
2022-11-05T02:46:37.166Z,24.80
2022-11-05T02:49:11.947Z,24.00
2022-11-05T02:51:46.780Z,20.60
2022-11-05T02:54:17.797Z,36.40
2022-11-05T02:56:49.324Z,24.20
2022-11-05T02:59:17.701Z,31.40
2022-11-05T03:01:47.571Z,22.80
2022-11-05T03:04:17.888Z,27.30
2022-11-05T03:07:00.477Z,27.90
2022-11-05T03:09:43.731Z,26.70
2022-11-05T03:12:21.504Z,29.20
2022-11-05T03:14:56.400Z,24.70
2022-11-05T03:17:37.154Z,20.80
2022-11-05T03:20:14.937Z,30.90
2022-11-05T03:22:49.716Z,24.70
2022-11-05T03:25:22.005Z,20.50
2022-11-05T03:27:54.632Z,23.00
2022-11-05T03:30:24.873Z,25.20
2022-11-05T03:32:59.070Z,24.20
2022-11-05T03:35:30.434Z,23.90
2022-11-05T03:38:02.600Z,29.90
2022-11-05T03:40:33.387Z,22.70
2022-11-05T03:43:05.714Z,22.60
2022-11-05T03:45:37.575Z,28.10
2022-11-05T03:48:07.827Z,25.60
2022-11-05T03:50:41.483Z,20.70
2022-11-05T03:53:15.714Z,22.40
2022-11-05T03:58:16.297Z,15.80
2022-11-05T04:00:45.078Z,27.60
2022-11-05T04:03:14.901Z,23.20
2022-11-05T04:05:43.940Z,31.70
2022-11-05T04:08:30.636Z,26.60
2022-11-05T04:11:17.354Z,31.60
2022-11-05T04:13:46.419Z,54.50
2022-11-05T04:16:33.295Z,30.30
2022-11-05T04:19:01.836Z,27.20
2022-11-05T04:21:48.897Z,33.30
2022-11-05T04:24:17.304Z,28.40
2022-11-05T04:26:46.918Z,28.20
2022-11-05T04:29:33.411Z,24.80
2022-11-05T04:32:02.401Z,24.80
2022-11-05T04:34:30.866Z,22.40
2022-11-05T04:36:59.309Z,32.00
2022-11-05T04:39:28.093Z,25.40
2022-11-05T04:41:56.604Z,26.80
2022-11-05T04:44:24.986Z,29.40
2022-11-05T04:46:53.523Z,26.30
2022-11-05T04:49:21.972Z,26.40
2022-11-05T04:51:50.598Z,32.90
2022-11-05T04:54:19.293Z,26.30
2022-11-05T04:56:47.702Z,24.00
2022-11-05T04:59:16.160Z,26.90
2022-11-05T05:01:44.596Z,29.80
2022-11-05T05:04:13.977Z,30.30
2022-11-05T05:06:42.595Z,27.90
2022-11-05T05:09:12.542Z,27.40
2022-11-05T05:11:41.032Z,28.60
2022-11-05T05:14:10.345Z,31.90
2022-11-05T05:16:39.129Z,34.60
2022-11-05T05:19:07.489Z,25.00
2022-11-05T05:21:39.030Z,32.00
2022-11-05T05:24:09.818Z,27.10
2022-11-05T05:26:39.942Z,24.40
2022-11-05T05:29:09.411Z,27.20
2022-11-05T05:31:38.248Z,36.90
2022-11-05T05:34:08.261Z,31.40
2022-11-05T05:36:38.373Z,29.90
2022-11-05T05:39:07.206Z,32.90
2022-11-05T05:41:35.746Z,32.30
2022-11-05T05:44:06.188Z,32.20
2022-11-05T05:46:34.677Z,35.50
2022-11-05T05:49:06.668Z,27.80
2022-11-05T05:51:40.114Z,34.20
2022-11-05T05:54:09.910Z,44.40
2022-11-05T05:56:38.336Z,28.20
2022-11-05T05:59:07.577Z,24.40
2022-11-05T06:01:36.802Z,26.80
2022-11-05T06:04:05.719Z,29.20
2022-11-05T06:06:34.326Z,33.60
2022-11-05T06:09:05.366Z,25.40
2022-11-05T06:11:33.849Z,36.80
2022-11-05T06:14:02.761Z,37.90
2022-11-05T06:16:35.318Z,41.20
2022-11-05T06:19:04.721Z,38.00
2022-11-05T06:21:33.232Z,33.90
2022-11-05T06:24:02.727Z,28.60
2022-11-05T06:26:32.035Z,37.50
2022-11-05T06:29:00.569Z,32.20
2022-11-05T06:31:30.023Z,30.90
2022-11-05T06:33:59.001Z,39.60
2022-11-05T06:36:27.506Z,35.00
2022-11-05T06:38:56.280Z,31.50
2022-11-05T06:41:24.725Z,35.00
2022-11-05T06:43:53.235Z,38.00
2022-11-05T06:46:21.650Z,32.50
2022-11-05T06:48:50.977Z,34.60
2022-11-05T06:51:19.480Z,40.80
2022-11-05T06:53:48.409Z,33.20
2022-11-05T06:56:17.090Z,34.60
2022-11-05T06:58:45.506Z,28.60
2022-11-05T07:01:14.025Z,34.30
2022-11-05T07:03:44.193Z,31.90
2022-11-05T07:06:12.575Z,38.60
2022-11-05T07:08:41.039Z,35.10
2022-11-05T07:11:09.481Z,39.30
2022-11-05T07:13:37.903Z,31.30
2022-11-05T07:16:08.345Z,36.80
2022-11-05T07:18:37.263Z,33.10
2022-11-05T07:21:06.281Z,35.70
2022-11-05T07:23:34.703Z,33.50
2022-11-05T07:26:03.425Z,31.90
2022-11-05T07:28:31.901Z,32.40
2022-11-05T07:31:00.560Z,32.10
2022-11-05T07:33:35.273Z,33.60
2022-11-05T07:36:05.928Z,37.10
2022-11-05T07:38:37.819Z,37.60
2022-11-05T07:41:06.822Z,44.60
2022-11-05T07:43:38.155Z,31.80
2022-11-05T07:46:11.147Z,34.20
2022-11-05T07:48:42.399Z,36.50
2022-11-05T07:51:11.049Z,38.10
2022-11-05T07:53:44.914Z,35.40
2022-11-05T07:56:14.589Z,39.10
2022-11-05T07:58:43.198Z,35.20
2022-11-05T08:01:11.716Z,35.90
2022-11-05T08:03:40.259Z,35.10
2022-11-05T08:06:09.029Z,34.30
2022-11-05T08:08:37.519Z,36.60
2022-11-05T08:11:07.311Z,41.70
2022-11-05T08:13:36.245Z,36.50
2022-11-05T08:16:06.220Z,32.10
2022-11-05T08:18:35.562Z,41.80
2022-11-05T08:21:05.422Z,33.90
2022-11-05T08:23:34.111Z,41.30
2022-11-05T08:26:04.009Z,38.00
2022-11-05T08:28:33.120Z,34.30
2022-11-05T08:31:01.703Z,30.40
2022-11-05T08:33:31.099Z,38.20
2022-11-05T08:36:03.510Z,35.60
2022-11-05T08:38:32.902Z,35.30
2022-11-05T08:41:01.921Z,39.60
2022-11-05T08:43:30.666Z,41.80
2022-11-05T08:46:01.938Z,43.70
2022-11-05T08:48:30.411Z,34.10
2022-11-05T08:51:01.480Z,34.60
2022-11-05T08:53:31.356Z,37.90
2022-11-05T08:56:00.184Z,41.00
2022-11-05T08:58:28.801Z,38.20
2022-11-05T09:01:03.509Z,46.40
2022-11-05T09:03:33.512Z,42.50
2022-11-05T09:06:02.236Z,40.30
2022-11-05T09:08:30.834Z,50.50
2022-11-05T09:10:59.734Z,36.20
2022-11-05T09:13:28.348Z,37.80
2022-11-05T09:15:59.147Z,38.90
2022-11-05T09:18:28.913Z,38.80
2022-11-05T09:20:57.471Z,38.60
2022-11-05T09:23:26.444Z,44.00
2022-11-05T09:25:55.227Z,41.50
2022-11-05T09:28:24.965Z,47.30
2022-11-05T09:30:54.065Z,41.30
2022-11-05T09:33:24.481Z,40.30
2022-11-05T09:35:53.658Z,43.20
2022-11-05T09:38:23.091Z,47.40
2022-11-05T09:40:57.550Z,41.60
2022-11-05T09:43:32.073Z,46.10
2022-11-05T09:46:03.855Z,39.80
2022-11-05T09:48:34.189Z,49.30
2022-11-05T09:51:05.407Z,49.60
2022-11-05T09:53:37.761Z,52.60
2022-11-05T09:56:10.931Z,48.10
2022-11-05T09:58:42.993Z,43.40
2022-11-05T10:01:15.982Z,54.80
2022-11-05T10:03:49.971Z,44.80
2022-11-05T10:06:20.853Z,43.50
2022-11-05T10:08:52.844Z,46.40
2022-11-05T10:11:25.066Z,51.10
2022-11-05T10:13:58.814Z,47.90
2022-11-05T10:16:30.764Z,33.10
2022-11-05T10:19:02.535Z,51.00
2022-11-05T10:21:59.522Z,54.80
2022-11-05T10:24:21.422Z,41.10
2022-11-05T10:26:51.922Z,50.20
2022-11-05T10:29:25.093Z,42.20
2022-11-05T10:31:54.602Z,42.50
2022-11-05T10:34:28.598Z,50.90
2022-11-05T10:39:27.111Z,48.60
2022-11-05T10:42:20.143Z,46.60
2022-11-05T10:44:56.381Z,55.80
2022-11-05T10:47:39.638Z,51.40
2022-11-05T10:50:11.869Z,53.60
2022-11-05T10:52:45.928Z,53.80
2022-11-05T10:55:19.107Z,54.90
2022-11-05T10:57:48.821Z,56.30
2022-11-05T11:00:25.234Z,58.40
2022-11-05T11:02:55.773Z,56.60
2022-11-05T11:05:27.250Z,53.00
2022-11-05T11:08:00.247Z,53.50
2022-11-05T11:10:33.706Z,47.00
2022-11-05T11:13:03.109Z,57.90
2022-11-05T11:15:32.618Z,56.20
2022-11-05T11:18:23.237Z,64.20
2022-11-05T11:20:52.046Z,52.20
2022-11-05T11:23:21.107Z,63.30
2022-11-05T11:25:54.096Z,54.90
2022-11-05T11:28:29.024Z,58.30
2022-11-05T11:31:04.982Z,57.40
2022-11-05T11:33:35.242Z,55.90
2022-11-05T11:36:04.266Z,51.60
2022-11-05T11:38:35.173Z,61.50
2022-11-05T11:41:16.195Z,60.90
2022-11-05T11:43:45.659Z,67.40
2022-11-05T11:46:16.710Z,57.80
2022-11-05T11:48:47.801Z,62.60
2022-11-05T11:51:30.729Z,65.20
2022-11-05T11:54:05.449Z,54.80
2022-11-05T11:56:45.768Z,71.10
2022-11-05T11:59:40.463Z,60.70
2022-11-05T12:05:22.424Z,57.70
2022-11-05T12:07:57.398Z,56.90
2022-11-05T12:10:51.817Z,67.10
2022-11-05T12:13:54.588Z,67.20
2022-11-05T12:16:30.715Z,55.50
2022-11-05T12:19:12.705Z,71.60
2022-11-05T12:21:53.334Z,65.80
2022-11-05T12:24:45.039Z,66.10
2022-11-05T12:27:27.601Z,58.10
2022-11-05T12:30:10.318Z,43.70
2022-11-05T12:32:49.463Z,70.30
2022-11-05T12:35:34.764Z,69.40
2022-11-05T12:38:14.041Z,56.50
2022-11-05T12:41:06.100Z,73.10
2022-11-05T12:43:46.371Z,59.80
2022-11-05T12:46:25.318Z,71.80
2022-11-05T12:49:31.071Z,71.70
2022-11-05T12:52:17.652Z,73.80
2022-11-05T12:54:58.405Z,66.60
2022-11-05T12:57:28.003Z,64.40
2022-11-05T13:00:06.845Z,78.50
2022-11-05T13:02:42.481Z,81.10
2022-11-05T13:05:15.859Z,71.50
2022-11-05T13:07:49.951Z,52.00
2022-11-05T13:10:25.593Z,73.50
2022-11-05T13:13:00.469Z,66.30
2022-11-05T13:15:32.796Z,73.20
2022-11-05T13:18:04.848Z,78.70
2022-11-05T13:20:36.290Z,77.70
2022-11-05T13:23:17.974Z,58.00
2022-11-05T13:25:52.175Z,67.20
2022-11-05T13:28:32.714Z,74.00
2022-11-05T13:31:03.577Z,69.40
2022-11-05T13:33:34.843Z,93.50
2022-11-05T13:36:24.854Z,87.60
2022-11-05T13:38:59.448Z,88.90
2022-11-05T13:41:36.112Z,82.00
2022-11-05T13:44:18.792Z,89.80
2022-11-05T13:47:15.621Z,76.40
2022-11-05T13:50:17.852Z,68.90
2022-11-05T13:52:57.804Z,60.90
2022-11-05T13:55:41.871Z,82.00
2022-11-05T13:58:23.276Z,68.70
2022-11-05T14:01:01.273Z,92.70
2022-11-05T14:03:30.378Z,82.40
2022-11-05T14:06:03.490Z,97.10
2022-11-05T14:08:36.400Z,82.40
2022-11-05T14:11:07.319Z,92.00
2022-11-05T14:13:37.962Z,97.60
2022-11-05T14:16:08.763Z,107.50
2022-11-05T14:18:43.270Z,102.60
2022-11-05T14:21:48.313Z,98.80
2022-11-05T14:27:24.076Z,85.80
2022-11-05T14:29:53.291Z,91.80
2022-11-05T14:32:27.539Z,92.20
2022-11-05T14:35:03.283Z,94.90
2022-11-05T14:37:33.785Z,86.30
2022-11-05T14:40:25.179Z,103.70
2022-11-05T14:42:56.114Z,78.20
2022-11-05T14:45:28.903Z,75.50
2022-11-05T14:47:59.657Z,75.80
2022-11-05T14:50:35.887Z,65.70
2022-11-05T14:53:11.741Z,74.10
2022-11-05T14:55:42.385Z,75.60
2022-11-05T14:58:29.750Z,60.00
2022-11-05T15:00:59.414Z,63.30
2022-11-05T15:04:10.696Z,58.50
2022-11-05T15:06:39.221Z,61.70
2022-11-05T15:09:31.742Z,66.90
2022-11-05T15:12:13.645Z,61.70
2022-11-05T15:14:55.092Z,59.20
2022-11-05T15:17:29.322Z,59.10
2022-11-05T15:20:07.869Z,58.10
2022-11-05T15:22:41.716Z,52.80
2022-11-05T15:25:17.827Z,40.50
2022-11-05T15:28:04.889Z,55.10
2022-11-05T15:30:33.658Z,48.40
2022-11-05T15:33:18.160Z,48.30
2022-11-05T15:35:47.136Z,55.10
2022-11-05T15:38:30.316Z,56.40
2022-11-05T15:41:00.754Z,39.60
2022-11-05T15:43:29.818Z,44.70
2022-11-05T15:46:03.485Z,54.50
2022-11-05T15:48:32.314Z,40.40
2022-11-05T15:51:01.291Z,42.50
2022-11-05T15:54:16.160Z,42.40
2022-11-05T15:56:48.549Z,39.00
2022-11-05T15:59:19.006Z,44.80
2022-11-05T16:01:48.994Z,38.60
2022-11-05T16:04:19.874Z,41.50
2022-11-05T16:06:55.643Z,38.80
2022-11-05T16:09:26.170Z,44.80
2022-11-05T16:12:12.354Z,39.10
2022-11-05T16:14:41.521Z,42.80
2022-11-05T16:17:21.335Z,39.90
2022-11-05T16:19:50.894Z,34.10
2022-11-05T16:22:19.666Z,39.50
2022-11-05T16:24:50.510Z,41.30
2022-11-05T16:27:20.953Z,38.80
2022-11-05T16:29:52.138Z,41.70
2022-11-05T16:32:28.586Z,36.10
2022-11-05T16:35:00.322Z,43.80
2022-11-05T16:37:31.526Z,49.40
2022-11-05T16:40:01.278Z,42.40
2022-11-05T16:42:42.268Z,44.50
2022-11-05T16:45:14.211Z,52.60
2022-11-05T16:47:44.706Z,49.80
2022-11-05T16:50:19.782Z,46.70
2022-11-05T16:52:48.700Z,48.20
2022-11-05T16:55:18.486Z,45.60
2022-11-05T16:57:51.090Z,52.90
2022-11-05T17:00:21.646Z,47.00
2022-11-05T17:02:50.543Z,50.60
2022-11-05T17:05:22.317Z,57.40
2022-11-05T17:07:51.377Z,51.60
2022-11-05T17:10:20.818Z,53.20
2022-11-05T17:12:49.953Z,58.50
2022-11-05T17:15:21.433Z,55.70
2022-11-05T17:17:50.945Z,56.50
2022-11-05T17:20:38.316Z,52.20
2022-11-05T17:23:10.520Z,59.90
2022-11-05T17:25:39.819Z,63.30
2022-11-05T17:28:10.166Z,60.70
2022-11-05T17:30:41.650Z,69.80
2022-11-05T17:33:11.510Z,62.00
2022-11-05T17:35:41.810Z,64.80
2022-11-05T17:38:10.708Z,60.90
2022-11-05T17:40:39.622Z,59.30
2022-11-05T17:43:08.853Z,70.10
2022-11-05T17:45:42.722Z,64.00
2022-11-05T17:48:14.578Z,70.50
2022-11-05T17:50:43.887Z,60.70
2022-11-05T17:53:14.913Z,63.30
2022-11-05T17:55:44.680Z,70.00
2022-11-05T17:58:13.444Z,63.70
2022-11-05T18:00:43.576Z,58.60
2022-11-05T18:03:13.078Z,64.40
2022-11-05T18:05:42.574Z,67.80
2022-11-05T18:08:12.969Z,59.10
2022-11-05T18:10:42.109Z,76.90
2022-11-05T18:13:11.072Z,61.30
2022-11-05T18:15:40.716Z,59.30
2022-11-05T18:18:09.670Z,63.10
2022-11-05T18:20:38.552Z,65.80
2022-11-05T18:23:07.128Z,64.40
2022-11-05T18:25:35.888Z,50.70
2022-11-05T18:28:04.640Z,56.10
2022-11-05T18:30:33.651Z,67.70
2022-11-05T18:33:02.352Z,55.80
2022-11-05T18:35:31.433Z,53.80
2022-11-05T18:37:59.980Z,73.80
2022-11-05T18:40:28.863Z,76.50
2022-11-05T18:42:57.362Z,71.70
2022-11-05T18:45:29.709Z,58.70
2022-11-05T18:47:59.864Z,45.80
2022-11-05T18:50:28.789Z,67.30
2022-11-05T18:52:57.632Z,45.00
2022-11-05T18:55:26.205Z,57.10
2022-11-05T18:57:54.680Z,53.00
2022-11-05T19:00:23.385Z,45.30
2022-11-05T19:02:52.445Z,59.00
2022-11-05T19:05:30.013Z,47.70
2022-11-05T19:07:59.324Z,46.00
2022-11-05T19:10:29.212Z,38.30
2022-11-05T19:12:57.739Z,43.40
2022-11-05T19:15:26.731Z,47.20
2022-11-05T19:17:55.399Z,37.40
2022-11-05T19:20:23.974Z,33.30
2022-11-05T19:22:52.870Z,40.30
2022-11-05T19:25:21.352Z,40.60
2022-11-05T19:27:49.925Z,38.00
2022-11-05T19:30:18.627Z,40.20
2022-11-05T19:32:47.210Z,36.10
2022-11-05T19:35:15.734Z,25.60
2022-11-05T19:37:44.561Z,34.90
2022-11-05T19:40:13.463Z,35.70
2022-11-05T19:42:42.609Z,24.90
2022-11-05T19:45:38.193Z,27.00
2022-11-05T19:48:00.797Z,24.60
2022-11-05T19:50:29.770Z,23.70
2022-11-05T19:52:58.243Z,26.20
2022-11-05T19:55:26.756Z,21.50
2022-11-05T19:57:55.673Z,23.60
2022-11-05T20:00:24.526Z,17.50
2022-11-05T20:02:53.241Z,19.10
2022-11-05T20:05:22.043Z,19.30
2022-11-05T20:07:52.979Z,13.60
2022-11-05T20:10:22.538Z,14.40
2022-11-05T20:12:51.258Z,17.50
2022-11-05T20:15:20.387Z,27.40
2022-11-05T20:17:54.378Z,19.20
2022-11-05T20:22:52.930Z,14.60
2022-11-05T20:25:21.484Z,12.30
2022-11-05T20:27:49.925Z,20.10
2022-11-05T20:30:19.420Z,20.90
2022-11-05T20:32:48.951Z,17.40
2022-11-05T20:35:18.495Z,26.40
2022-11-05T20:37:51.210Z,24.70
2022-11-05T20:40:33.137Z,16.00
2022-11-05T20:43:02.358Z,17.90
2022-11-05T20:45:30.836Z,26.40
2022-11-05T20:47:59.503Z,33.80
2022-11-05T20:50:28.278Z,33.20
2022-11-05T20:52:56.914Z,36.20
2022-11-05T20:55:27.966Z,44.60
2022-11-05T20:57:57.005Z,35.60
2022-11-05T21:00:25.636Z,31.90
2022-11-05T21:02:54.351Z,24.80
2022-11-05T21:05:23.294Z,45.80
2022-11-05T21:07:51.895Z,42.30
2022-11-05T21:10:20.587Z,28.90
2022-11-05T21:12:49.369Z,35.60
2022-11-05T21:15:20.489Z,38.30
2022-11-05T21:17:48.998Z,36.50
2022-11-05T21:20:18.803Z,25.80
2022-11-05T21:22:48.046Z,44.70
2022-11-05T21:25:17.064Z,31.00
2022-11-05T21:27:46.184Z,35.30
2022-11-05T21:30:15.060Z,28.70
2022-11-05T21:32:43.830Z,38.80
2022-11-05T21:35:12.469Z,37.80
2022-11-05T21:37:40.933Z,33.40
2022-11-05T21:40:11.862Z,37.60
2022-11-05T21:42:40.504Z,37.60
2022-11-05T21:45:10.231Z,30.30
2022-11-05T21:47:38.704Z,41.40
2022-11-05T21:50:08.909Z,27.50
2022-11-05T21:52:56.502Z,33.20
2022-11-05T21:55:43.789Z,47.60
2022-11-05T21:58:33.341Z,37.30
2022-11-05T22:01:02.723Z,48.40
2022-11-05T22:03:31.345Z,34.90
2022-11-05T22:06:00.114Z,42.70
2022-11-05T22:08:28.790Z,36.30
2022-11-05T22:10:57.206Z,44.90
2022-11-05T22:13:25.759Z,42.70
2022-11-05T22:15:57.496Z,54.80
2022-11-05T22:18:26.061Z,36.30
2022-11-05T22:20:55.261Z,46.50
2022-11-05T22:23:25.532Z,33.50
2022-11-05T22:26:00.609Z,42.70
2022-11-05T22:28:29.115Z,49.60
2022-11-05T22:31:00.256Z,54.40
2022-11-05T22:33:28.752Z,46.60
2022-11-05T22:35:57.313Z,50.90
2022-11-05T22:38:32.695Z,42.80
2022-11-05T22:41:08.086Z,45.10
2022-11-05T22:43:37.617Z,37.60
2022-11-05T22:46:08.886Z,50.90
2022-11-05T22:48:38.180Z,51.30
2022-11-05T22:51:09.294Z,30.40
2022-11-05T22:53:38.269Z,35.80
2022-11-05T22:56:08.899Z,38.70
2022-11-05T22:58:37.742Z,34.20
2022-11-05T23:01:07.865Z,39.50
2022-11-05T23:03:36.750Z,46.10
2022-11-05T23:06:27.425Z,32.00
2022-11-05T23:09:14.561Z,27.50
2022-11-05T23:11:45.748Z,29.90
2022-11-05T23:14:14.583Z,30.20
2022-11-05T23:17:01.932Z,33.70
2022-11-05T23:19:49.624Z,38.80
2022-11-05T23:22:38.337Z,31.60
2022-11-05T23:25:10.274Z,38.00
2022-11-05T23:27:40.638Z,33.60
2022-11-05T23:30:13.213Z,36.80
2022-11-05T23:32:41.680Z,30.60
2022-11-05T23:35:11.017Z,36.90
2022-11-05T23:37:57.942Z,24.30
2022-11-05T23:40:28.345Z,40.90
2022-11-05T23:43:16.024Z,34.60
2022-11-05T23:46:03.487Z,38.70
2022-11-05T23:48:33.947Z,29.20
2022-11-05T23:51:04.588Z,33.30
2022-11-05T23:53:35.910Z,30.50
2022-11-05T23:56:07.021Z,29.70
2022-11-05T23:58:36.255Z,32.20
